Time;durP1;ratioP1;P1;durP2;ratioP2;P2;SDS_P1;SDS_P2;PMS_P1;PMS_P2;Temp;Humidity;BMP_temperature;BMP_pressure;BME280_temperature;BME280_humidity;BME280_pressure;Samples;Min_cycle;Max_cycle;Signal;HPM_P1;HPM_P2
2021/07/26 00:02:24;;;;;;;5.95;4.25;;;21.50;99.90;;;;;;5065324;28;20211;-64
2021/07/26 00:04:50;;;;;;;9.23;4.82;;;21.40;99.90;;;;;;5067914;28;20169;-64
2021/07/26 00:07:16;;;;;;;8.13;4.65;;;21.40;99.90;;;;;;5066771;28;20218;-64
2021/07/26 00:09:41;;;;;;;6.38;5.15;;;21.40;99.90;;;;;;5067984;28;20208;-64
2021/07/26 00:12:08;;;;;;;5.63;5.00;;;21.70;99.90;;;;;;5065348;28;20172;-63
2021/07/26 00:14:34;;;;;;;7.30;5.93;;;21.90;99.90;;;;;;5067039;28;20161;-64
2021/07/26 00:17:00;;;;;;;9.90;6.22;;;22.10;99.90;;;;;;5067742;28;20224;-64
2021/07/26 00:19:26;;;;;;;6.68;5.70;;;22.20;99.90;;;;;;5067524;28;20226;-64
2021/07/26 00:21:51;;;;;;;8.73;6.10;;;22.30;99.90;;;;;;5065166;28;20168;-64
2021/07/26 00:24:18;;;;;;;11.57;6.78;;;22.00;99.90;;;;;;5067514;28;20160;-63
2021/07/26 00:26:44;;;;;;;11.43;7.32;;;21.90;99.90;;;;;;5067608;28;20176;-64
2021/07/26 00:29:10;;;;;;;7.60;6.05;;;21.70;99.90;;;;;;5066332;28;20164;-64
2021/07/26 00:31:36;;;;;;;8.55;6.07;;;21.30;99.90;;;;;;5064818;28;20167;-64
2021/07/26 00:34:07;;;;;;;12.73;6.88;;;21.00;99.90;;;;;;5067412;28;20187;-64
2021/07/26 00:36:35;;;;;;;10.82;6.20;;;20.90;99.90;;;;;;5067268;28;20270;-64
2021/07/26 00:39:01;;;;;;;9.65;6.50;;;20.70;99.90;;;;;;5067526;28;20165;-64
2021/07/26 00:41:27;;;;;;;7.22;6.53;;;20.60;99.90;;;;;;5064804;28;20157;-64
2021/07/26 00:43:53;;;;;;;6.57;5.80;;;20.50;99.90;;;;;;5067512;28;20249;-64
2021/07/26 00:46:19;;;;;;;9.98;7.40;;;20.40;99.90;;;;;;5066991;28;20232;-64
2021/07/26 00:48:45;;;;;;;7.95;6.50;;;20.60;99.90;;;;;;5067338;28;20347;-64
2021/07/26 00:51:12;;;;;;;9.00;6.28;;;20.60;99.90;;;;;;5064479;28;20660;-64
2021/07/26 00:53:38;;;;;;;8.85;6.32;;;20.50;99.90;;;;;;5066977;28;20160;-64
2021/07/26 00:56:05;;;;;;;11.05;7.15;;;20.60;99.90;;;;;;5066909;28;20248;-64
2021/07/26 00:58:30;;;;;;;8.38;6.47;;;20.70;99.90;;;;;;5066940;28;20233;-64
2021/07/26 01:00:56;;;;;;;7.25;6.50;;;20.70;99.90;;;;;;5064314;28;20161;-64
2021/07/26 01:03:22;;;;;;;7.32;6.63;;;20.70;99.90;;;;;;5066735;28;20187;-64
2021/07/26 01:05:48;;;;;;;9.10;6.47;;;20.70;99.90;;;;;;5066560;28;20187;-64
2021/07/26 01:08:14;;;;;;;7.53;6.18;;;20.70;99.90;;;;;;5066843;28;20212;-64
2021/07/26 01:10:40;;;;;;;7.85;6.85;;;20.60;99.90;;;;;;5064447;28;20173;-64
2021/07/26 01:13:06;;;;;;;7.88;7.07;;;20.50;99.90;;;;;;5066864;28;20226;-64
2021/07/26 01:15:31;;;;;;;6.53;5.90;;;20.60;99.90;;;;;;5066509;28;20192;-64
2021/07/26 01:18:18;;;;;;;6.88;6.18;;;20.50;99.90;;;;;;5066687;28;20188;-64
2021/07/26 01:20:44;;;;;;;9.32;6.22;;;20.70;99.90;;;;;;5063943;28;20273;-64
2021/07/26 01:23:09;;;;;;;7.55;6.55;;;20.80;99.90;;;;;;5066651;28;20626;-64
2021/07/26 01:25:36;;;;;;;9.70;6.45;;;20.80;99.90;;;;;;5065842;28;20203;-64
2021/07/26 01:28:03;;;;;;;9.82;6.18;;;20.70;99.90;;;;;;5065940;28;20664;-64
2021/07/26 01:30:29;;;;;;;10.10;6.97;;;20.60;99.90;;;;;;5065023;28;20577;-64
2021/07/26 01:32:54;;;;;;;9.65;6.43;;;20.70;99.90;;;;;;5065613;28;20157;-64
2021/07/26 01:35:20;;;;;;;6.75;6.10;;;20.70;99.90;;;;;;5065843;28;20192;-64
2021/07/26 01:37:45;;;;;;;9.13;6.97;;;20.70;99.90;;;;;;5066443;28;20168;-64
2021/07/26 01:40:12;;;;;;;12.25;7.10;;;20.70;99.90;;;;;;5066419;28;20220;-64
2021/07/26 01:42:42;;;;;;;12.90;7.15;;;20.90;99.90;;;;;;5063483;28;20180;-64
2021/07/26 01:45:09;;;;;;;13.25;7.50;;;21.00;99.90;;;;;;5066361;28;20264;-64
2021/07/26 01:47:56;;;;;;;11.32;7.40;;;20.70;99.90;;;;;;5066043;28;20220;-64
2021/07/26 01:50:23;;;;;;;12.15;7.03;;;20.50;99.90;;;;;;5054182;28;20537;-64
2021/07/26 01:52:49;;;;;;;9.27;7.82;;;20.60;99.90;;;;;;5064750;28;20157;-64
2021/07/26 01:55:15;;;;;;;10.68;7.60;;;20.60;99.90;;;;;;5065970;28;20177;-64
2021/07/26 01:57:41;;;;;;;11.70;7.57;;;20.50;99.90;;;;;;5066163;28;20188;-64
2021/07/26 02:00:07;;;;;;;12.27;7.18;;;20.60;99.90;;;;;;5066026;28;20171;-64
2021/07/26 02:02:33;;;;;;;11.40;7.15;;;20.50;99.90;;;;;;5063270;28;20247;-64
2021/07/26 02:04:58;;;;;;;13.23;7.50;;;20.30;99.90;;;;;;5065644;28;20214;-64
2021/07/26 02:07:24;;;;;;;7.43;6.63;;;20.20;99.90;;;;;;5065830;28;20161;-64
2021/07/26 02:09:50;;;;;;;13.35;8.25;;;20.10;99.90;;;;;;5065863;28;20215;-64
2021/07/26 02:12:16;;;;;;;12.23;7.85;;;20.10;99.90;;;;;;5063211;28;20533;-64
2021/07/26 02:14:42;;;;;;;11.45;7.88;;;20.20;99.90;;;;;;5065780;28;20156;-64
2021/07/26 02:17:08;;;;;;;12.60;8.52;;;20.30;99.90;;;;;;5065772;28;20201;-64
2021/07/26 02:19:34;;;;;;;12.43;7.45;;;20.00;99.90;;;;;;5065386;28;20259;-63
2021/07/26 02:21:59;;;;;;;13.73;7.45;;;19.90;99.90;;;;;;5063182;28;20179;-64
2021/07/26 02:24:25;;;;;;;13.75;6.88;;;19.70;99.90;;;;;;5065686;28;20169;-63
2021/07/26 02:26:51;;;;;;;14.32;7.43;;;19.80;99.90;;;;;;5065716;28;20161;-63
2021/07/26 02:29:17;;;;;;;17.13;7.85;;;19.80;99.90;;;;;;5065642;28;20636;-64
2021/07/26 02:31:43;;;;;;;16.38;7.53;;;19.90;99.90;;;;;;5063096;28;20173;-64
2021/07/26 02:34:09;;;;;;;16.58;7.75;;;19.90;99.90;;;;;;5065483;28;20180;-63
2021/07/26 02:36:35;;;;;;;13.02;8.57;;;19.90;99.90;;;;;;5064112;28;20196;-63
2021/07/26 02:39:00;;;;;;;12.95;8.43;;;19.80;99.90;;;;;;5067464;28;20195;-64
2021/07/26 02:41:26;;;;;;;15.15;7.57;;;19.70;99.90;;;;;;5067059;28;20153;-64
2021/07/26 02:43:52;;;;;;;15.30;7.65;;;19.70;99.90;;;;;;5069793;28;20207;-64
2021/07/26 02:46:17;;;;;;;10.90;7.25;;;19.70;99.90;;;;;;5069434;28;20658;-64
2021/07/26 02:48:43;;;;;;;15.23;7.00;;;19.80;99.90;;;;;;5069725;28;20260;-63
2021/07/26 02:51:09;;;;;;;13.10;7.63;;;19.60;99.90;;;;;;5066679;28;20177;-63
2021/07/26 02:53:34;;;;;;;14.27;7.45;;;19.50;99.90;;;;;;5069377;28;20160;-64
2021/07/26 02:56:00;;;;;;;12.68;7.32;;;19.50;99.90;;;;;;5069318;28;20893;-64
2021/07/26 02:58:26;;;;;;;21.33;7.40;;;19.60;99.90;;;;;;5069195;28;20165;-64
2021/07/26 03:00:52;;;;;;;12.40;7.18;;;19.60;99.90;;;;;;5066910;28;20152;-64
2021/07/26 03:03:18;;;;;;;22.88;8.07;;;19.70;99.90;;;;;;5068925;28;20180;-63
2021/07/26 03:05:43;;;;;;;9.98;6.82;;;19.70;99.90;;;;;;5069007;28;20168;-64
2021/07/26 03:08:09;;;;;;;9.35;6.95;;;19.70;99.90;;;;;;5069180;28;20230;-64
2021/07/26 03:10:35;;;;;;;8.27;6.72;;;19.50;99.90;;;;;;5067053;28;20169;-64
2021/07/26 03:13:00;;;;;;;14.02;7.72;;;19.50;99.90;;;;;;5068734;28;20160;-64
2021/07/26 03:15:26;;;;;;;13.05;8.32;;;19.50;99.90;;;;;;5068962;28;20192;-64
2021/07/26 03:17:52;;;;;;;15.05;8.52;;;19.60;99.90;;;;;;5069121;28;20160;-64
2021/07/26 03:20:18;;;;;;;19.80;8.95;;;19.50;99.90;;;;;;5068222;28;20168;-64
2021/07/26 03:23:02;;;;;;;14.30;8.27;;;19.50;99.90;;;;;;5066660;28;20165;-63
2021/07/26 03:25:30;;;;;;;15.88;9.05;;;19.40;99.90;;;;;;5068763;28;20180;-64
2021/07/26 03:27:57;;;;;;;26.70;9.77;;;19.40;99.90;;;;;;5067651;28;20224;-63
2021/07/26 03:30:23;;;;;;;20.15;9.00;;;19.70;99.90;;;;;;5067890;28;20164;-64
2021/07/26 03:32:49;;;;;;;23.00;9.07;;;19.40;99.90;;;;;;5067194;28;20214;-64
2021/07/26 03:35:16;;;;;;;26.98;9.07;;;19.20;99.90;;;;;;5068219;28;20168;-64
2021/07/26 03:37:42;;;;;;;20.75;9.40;;;19.20;99.90;;;;;;5068869;28;20173;-63
2021/07/26 03:40:09;;;;;;;18.15;8.93;;;18.90;99.90;;;;;;5068652;28;20264;-64
2021/07/26 03:42:39;;;;;;;18.00;9.02;;;18.90;99.90;;;;;;5064536;28;20165;-64
2021/07/26 03:45:06;;;;;;;18.92;8.85;;;19.00;99.90;;;;;;5068570;28;20160;-63
2021/07/26 03:47:32;;;;;;;23.08;9.75;;;18.90;99.90;;;;;;5068337;28;20548;-64
2021/07/26 03:49:57;;;;;;;21.00;10.50;;;19.00;99.90;;;;;;5066944;28;20182;-64
2021/07/26 03:52:23;;;;;;;20.52;10.57;;;19.10;99.90;;;;;;5065729;28;20164;-63
2021/07/26 03:54:49;;;;;;;25.77;10.65;;;19.30;99.90;;;;;;5068378;28;20223;-64
2021/07/26 03:57:14;;;;;;;18.73;10.35;;;19.30;99.90;;;;;;5068074;28;20188;-64
2021/07/26 03:59:40;;;;;;;22.20;11.18;;;19.10;99.90;;;;;;5068351;28;20165;-64
2021/07/26 04:02:06;;;;;;;22.00;12.20;;;19.20;99.90;;;;;;5065384;28;20248;-63
2021/07/26 04:04:32;;;;;;;29.23;12.30;;;19.30;99.90;;;;;;5067704;28;20169;-64
2021/07/26 04:07:04;;;;;;;18.63;11.13;;;19.30;99.90;;;;;;5068018;28;20745;-64
2021/07/26 04:09:36;;;;;;;22.75;11.35;;;19.10;99.90;;;;;;5067752;28;20219;-65
2021/07/26 04:12:05;;;;;;;15.20;11.73;;;19.10;99.90;;;;;;5065371;28;20230;-64
2021/07/26 04:14:35;;;;;;;23.30;11.50;;;18.90;99.90;;;;;;5067802;28;20168;-64
2021/07/26 04:17:01;;;;;;;22.13;11.25;;;18.80;99.90;;;;;;5067788;28;20188;-66
2021/07/26 04:19:26;;;;;;;22.33;11.90;;;18.90;99.90;;;;;;5067561;28;20232;-66
2021/07/26 04:21:56;;;;;;;23.42;11.75;;;19.10;99.90;;;;;;5065333;28;20551;-64
2021/07/26 04:24:22;;;;;;;15.80;10.95;;;19.10;99.90;;;;;;5067500;28;20153;-64
2021/07/26 04:26:48;;;;;;;20.75;10.73;;;19.00;99.90;;;;;;5067515;28;20180;-64
2021/07/26 04:29:15;;;;;;;22.02;10.40;;;19.00;99.90;;;;;;5066449;28;20199;-64
2021/07/26 04:31:41;;;;;;;20.95;10.90;;;19.00;99.90;;;;;;5063848;28;20184;-64
2021/07/26 04:34:06;;;;;;;13.73;9.80;;;19.20;99.90;;;;;;5067430;28;20196;-63
2021/07/26 04:36:32;;;;;;;20.35;9.90;;;19.20;99.90;;;;;;5067241;28;20192;-64
2021/07/26 04:38:58;;;;;;;16.10;9.68;;;19.30;99.90;;;;;;5067595;28;20169;-64
2021/07/26 04:41:23;;;;;;;13.20;9.73;;;19.50;99.90;;;;;;5064783;28;20167;-64
2021/07/26 04:43:49;;;;;;;19.00;9.65;;;19.60;99.90;;;;;;5067293;28;20197;-63
2021/07/26 04:46:15;;;;;;;23.33;9.45;;;19.80;99.90;;;;;;5067276;28;20173;-64
2021/07/26 04:48:40;;;;;;;18.00;9.25;;;19.60;99.90;;;;;;5067756;28;20161;-65
2021/07/26 04:51:06;;;;;;;11.70;8.35;;;19.60;99.90;;;;;;5064379;28;20180;-65
2021/07/26 04:53:34;;;;;;;15.07;8.30;;;19.30;99.90;;;;;;5066930;28;20188;-64
2021/07/26 04:56:00;;;;;;;22.27;8.60;;;19.30;99.90;;;;;;5066979;28;20619;-64
2021/07/26 04:58:26;;;;;;;16.90;7.90;;;19.30;99.90;;;;;;5066960;28;20157;-64
2021/07/26 05:00:51;;;;;;;21.38;8.48;;;19.50;99.90;;;;;;5064271;28;20686;-64
2021/07/26 05:03:17;;;;;;;19.63;9.25;;;19.50;99.90;;;;;;5066876;28;20157;-64
2021/07/26 05:05:43;;;;;;;15.00;8.30;;;19.60;99.90;;;;;;5066684;28;20646;-64
2021/07/26 05:08:08;;;;;;;15.18;8.23;;;19.60;99.90;;;;;;5066958;28;20164;-66
2021/07/26 05:10:34;;;;;;;13.23;7.93;;;19.50;99.90;;;;;;5064703;28;20161;-64
2021/07/26 05:13:00;;;;;;;23.42;7.72;;;19.50;99.90;;;;;;5066463;28;20160;-64
2021/07/26 05:15:25;;;;;;;15.13;7.93;;;19.50;99.90;;;;;;5066594;28;20196;-64
2021/07/26 05:17:51;;;;;;;9.77;7.20;;;19.70;99.90;;;;;;5066894;28;20188;-65
2021/07/26 05:20:17;;;;;;;23.92;7.72;;;19.80;99.90;;;;;;5066079;28;20628;-65
2021/07/26 05:22:42;;;;;;;15.88;7.80;;;19.80;99.90;;;;;;5064514;28;20509;-64
2021/07/26 05:25:09;;;;;;;22.88;8.88;;;20.00;99.90;;;;;;5066480;28;20200;-64
2021/07/26 05:27:35;;;;;;;18.13;7.55;;;20.10;99.90;;;;;;5065049;28;20165;-64
2021/07/26 05:30:03;;;;;;;15.00;8.27;;;20.00;99.90;;;;;;5066544;28;20167;-64
2021/07/26 05:32:28;;;;;;;11.98;7.70;;;20.00;99.90;;;;;;5063491;28;20164;-64
2021/07/26 05:34:54;;;;;;;22.77;8.00;;;20.00;99.90;;;;;;5066168;28;20192;-64
2021/07/26 05:37:20;;;;;;;16.17;7.40;;;20.10;99.90;;;;;;5066118;28;20204;-64
2021/07/26 05:39:45;;;;;;;16.95;7.53;;;20.30;99.90;;;;;;5066348;28;20225;-64
2021/07/26 05:42:12;;;;;;;13.48;7.45;;;20.40;99.90;;;;;;5063716;28;20183;-64
2021/07/26 05:44:38;;;;;;;18.92;7.45;;;20.50;99.90;;;;;;5064810;28;20172;-63
2021/07/26 05:47:05;;;;;;;16.58;7.28;;;20.70;99.90;;;;;;5065972;28;20580;-64
2021/07/26 05:49:30;;;;;;;9.07;6.85;;;20.90;99.90;;;;;;5065805;28;20244;-63
2021/07/26 05:51:56;;;;;;;15.45;7.40;;;20.90;99.90;;;;;;5063622;28;20172;-63
2021/07/26 05:54:21;;;;;;;13.13;6.85;;;20.90;99.90;;;;;;5065915;28;20191;-64
2021/07/26 05:56:49;;;;;;;16.38;7.05;;;20.80;99.90;;;;;;5065896;28;20192;-63
2021/07/26 05:59:16;;;;;;;19.45;8.15;;;20.80;99.90;;;;;;5066107;28;20149;-64
2021/07/26 06:01:48;;;;;;;14.73;7.85;;;20.90;99.90;;;;;;5063364;28;20623;-63
2021/07/26 06:04:19;;;;;;;18.77;8.50;;;21.10;99.90;;;;;;5065683;28;20165;-63
2021/07/26 06:06:47;;;;;;;17.73;8.10;;;21.10;99.90;;;;;;5065760;28;20165;-63
2021/07/26 06:09:13;;;;;;;14.57;7.80;;;20.90;99.90;;;;;;5065777;28;20219;-64
2021/07/26 06:11:40;;;;;;;17.67;8.82;;;20.70;99.90;;;;;;5063139;28;20626;-64
2021/07/26 06:14:06;;;;;;;18.65;8.90;;;21.00;99.90;;;;;;5065370;28;20168;-64
2021/07/26 06:16:32;;;;;;;16.83;8.85;;;20.80;99.90;;;;;;5065501;28;20223;-64
2021/07/26 06:19:08;;;;;;;17.58;7.72;;;20.80;99.90;;;;;;5065745;28;20172;-64
2021/07/26 06:21:38;;;;;;;20.33;8.68;;;20.60;99.90;;;;;;5062878;28;20655;-64
2021/07/26 06:24:04;;;;;;;17.77;7.38;;;20.70;99.90;;;;;;5065752;28;20210;-64
2021/07/26 06:26:30;;;;;;;15.75;8.35;;;20.50;99.90;;;;;;5065589;28;20176;-64
2021/07/26 06:28:55;;;;;;;13.32;7.80;;;20.60;99.90;;;;;;5064493;28;20166;-64
2021/07/26 06:31:21;;;;;;;17.40;8.32;;;20.90;99.90;;;;;;5062957;28;20168;-64
2021/07/26 06:33:46;;;;;;;15.35;7.65;;;20.90;99.90;;;;;;5065527;28;20644;-64
2021/07/26 06:36:12;;;;;;;11.63;6.65;;;21.10;99.90;;;;;;5065037;28;20247;-64
2021/07/26 06:38:38;;;;;;;11.85;6.10;;;21.10;99.90;;;;;;5065475;28;20168;-64
2021/07/26 06:41:05;;;;;;;9.48;6.72;;;20.90;99.90;;;;;;5062929;28;20215;-64
2021/07/26 06:43:31;;;;;;;10.77;5.60;;;21.00;99.90;;;;;;5065337;28;20171;-64
2021/07/26 06:45:56;;;;;;;12.65;6.07;;;21.20;99.90;;;;;;5065425;28;20228;-64
2021/07/26 06:48:24;;;;;;;14.32;6.35;;;21.40;99.90;;;;;;5065319;28;20183;-65
2021/07/26 06:50:50;;;;;;;8.13;5.90;;;21.80;99.90;;;;;;5062621;28;20195;-64
2021/07/26 06:53:16;;;;;;;15.13;5.70;;;21.80;99.90;;;;;;5065361;28;20236;-64
2021/07/26 06:55:42;;;;;;;12.32;6.32;;;21.50;99.90;;;;;;5065376;28;20196;-64
2021/07/26 06:58:07;;;;;;;7.18;6.03;;;21.50;99.90;;;;;;5064255;28;20167;-64
2021/07/26 07:00:33;;;;;;;10.45;7.70;;;21.50;99.90;;;;;;5063357;28;20603;-63
2021/07/26 07:03:00;;;;;;;16.65;8.55;;;21.20;99.90;;;;;;5064661;28;20165;-66
2021/07/26 07:05:25;;;;;;;18.25;10.52;;;21.10;99.90;;;;;;5064739;28;20173;-64
2021/07/26 07:07:51;;;;;;;19.02;12.80;;;20.70;99.90;;;;;;5065124;28;20164;-63
2021/07/26 07:10:17;;;;;;;22.15;15.50;;;20.40;99.90;;;;;;5063687;28;20172;-63
2021/07/26 07:12:42;;;;;;;24.45;15.15;;;20.20;99.90;;;;;;5063138;28;20212;-64
2021/07/26 07:15:08;;;;;;;22.25;15.23;;;20.00;99.90;;;;;;5065290;28;20235;-64
2021/07/26 07:17:34;;;;;;;26.08;16.20;;;19.80;99.90;;;;;;5065003;28;20165;-64
2021/07/26 07:20:00;;;;;;;22.45;17.30;;;20.00;99.90;;;;;;5064900;28;20179;-64
2021/07/26 07:22:26;;;;;;;28.15;17.70;;;20.10;99.90;;;;;;5062272;28;20232;-64
2021/07/26 07:24:51;;;;;;;34.00;17.15;;;20.20;99.90;;;;;;5067838;28;20161;-64
2021/07/26 07:27:17;;;;;;;28.13;19.20;;;20.30;99.90;;;;;;5068540;28;20176;-64
2021/07/26 07:29:43;;;;;;;27.70;19.58;;;20.40;99.90;;;;;;5068893;28;20220;-63
2021/07/26 07:32:12;;;;;;;34.65;22.98;;;20.50;99.90;;;;;;5066106;28;20255;-63
2021/07/26 07:34:40;;;;;;;45.50;26.83;;;20.30;99.90;;;;;;5068007;28;20422;-63
2021/07/26 07:37:09;;;;;;;37.25;24.27;;;20.00;99.90;;;;;;5068526;28;20189;-64
2021/07/26 07:39:36;;;;;;;46.58;27.40;;;19.70;99.90;;;;;;5068563;28;20635;-64
2021/07/26 07:42:03;;;;;;;45.67;28.63;;;19.60;99.90;;;;;;5066102;28;20203;-64
2021/07/26 07:44:32;;;;;;;45.10;29.92;;;19.50;99.90;;;;;;5068349;28;20161;-63
2021/07/26 07:47:00;;;;;;;54.83;31.08;;;19.70;99.90;;;;;;5068438;28;20168;-64
2021/07/26 07:49:26;;;;;;;49.13;30.95;;;19.70;99.90;;;;;;5068054;28;20649;-64
2021/07/26 07:51:52;;;;;;;47.13;30.02;;;19.60;99.90;;;;;;5066081;28;20173;-63
2021/07/26 07:54:17;;;;;;;49.38;30.98;;;19.60;99.90;;;;;;5068168;28;20174;-64
2021/07/26 07:56:45;;;;;;;52.05;31.35;;;19.70;99.90;;;;;;5068189;28;20193;-63
2021/07/26 07:59:10;;;;;;;46.47;30.20;;;19.70;99.90;;;;;;5068311;28;20165;-64
2021/07/26 08:01:37;;;;;;;44.95;29.92;;;19.60;99.90;;;;;;5065516;28;20168;-63
2021/07/26 08:04:03;;;;;;;41.20;28.98;;;19.60;99.90;;;;;;5068004;28;20165;-64
2021/07/26 08:06:29;;;;;;;44.22;28.38;;;19.50;99.90;;;;;;5067523;28;20662;-64
2021/07/26 08:08:54;;;;;;;46.65;28.52;;;19.60;99.90;;;;;;5067987;28;20216;-64
2021/07/26 08:11:20;;;;;;;42.17;28.48;;;19.50;99.90;;;;;;5065310;28;20203;-64
2021/07/26 08:13:45;;;;;;;49.90;30.10;;;19.50;99.90;;;;;;5068043;28;20165;-64
2021/07/26 08:16:11;;;;;;;50.92;31.00;;;19.50;99.90;;;;;;5067862;28;20192;-64
2021/07/26 08:18:37;;;;;;;52.70;31.80;;;19.50;99.90;;;;;;5067759;28;20248;-64
2021/07/26 08:21:02;;;;;;;53.90;31.95;;;19.50;99.90;;;;;;5065047;28;20173;-64
2021/07/26 08:23:28;;;;;;;57.88;33.75;;;19.40;99.90;;;;;;5067630;28;20161;-64
2021/07/26 08:25:54;;;;;;;53.60;33.80;;;19.40;99.90;;;;;;5067686;28;20177;-64
2021/07/26 08:28:19;;;;;;;59.28;33.20;;;19.60;99.90;;;;;;5067288;28;20204;-64
2021/07/26 08:30:45;;;;;;;51.33;33.83;;;19.60;99.90;;;;;;5065126;28;20479;-64
2021/07/26 08:33:11;;;;;;;44.88;30.48;;;19.50;99.90;;;;;;5067556;28;20176;-65
2021/07/26 08:35:37;;;;;;;52.10;31.40;;;19.30;99.90;;;;;;5066341;28;20196;-64
2021/07/26 08:38:05;;;;;;;51.33;32.92;;;19.10;99.90;;;;;;5067484;28;20161;-65
2021/07/26 08:40:31;;;;;;;48.75;31.88;;;19.00;99.90;;;;;;5065661;28;20161;-65
2021/07/26 08:43:04;;;;;;;49.70;30.25;;;18.90;99.90;;;;;;5066902;28;20160;-65
2021/07/26 08:45:33;;;;;;;47.38;29.80;;;19.00;99.90;;;;;;5065979;28;20658;-65
2021/07/26 08:48:07;;;;;;;54.25;33.38;;;19.00;99.90;;;;;;5067180;28;20218;-65
2021/07/26 08:50:34;;;;;;;51.08;32.08;;;19.10;99.90;;;;;;5065076;28;20173;-66
2021/07/26 08:53:03;;;;;;;56.65;35.13;;;19.10;99.90;;;;;;5066754;28;20163;-65
2021/07/26 08:55:31;;;;;;;54.22;33.10;;;19.10;99.90;;;;;;5067063;28;20169;-65
2021/07/26 08:57:58;;;;;;;56.35;33.28;;;19.30;99.90;;;;;;5067009;28;20169;-65
2021/07/26 09:00:24;;;;;;;53.20;32.50;;;19.30;99.90;;;;;;5066143;28;20653;-65
2021/07/26 09:02:51;;;;;;;53.50;32.95;;;19.40;99.90;;;;;;5064097;28;20224;-64
2021/07/26 09:05:17;;;;;;;53.25;32.90;;;19.70;99.90;;;;;;5066490;28;20180;-65
2021/07/26 09:07:45;;;;;;;45.72;30.75;;;19.90;99.90;;;;;;5066994;28;20180;-64
2021/07/26 09:10:16;;;;;;;46.65;31.75;;;20.10;99.90;;;;;;5065340;28;20637;-65
2021/07/26 09:12:43;;;;;;;45.08;31.33;;;20.10;99.90;;;;;;5064313;28;20160;-65
2021/07/26 09:15:37;;;;;;;41.42;29.48;;;20.20;99.90;;;;;;5066773;28;20161;-65
2021/07/26 09:18:08;;;;;;;44.35;28.98;;;20.50;99.90;;;;;;5066511;28;20255;-65
2021/07/26 09:20:36;;;;;;;43.67;29.20;;;20.60;99.90;;;;;;5064242;28;20181;-65
2021/07/26 09:23:18;;;;;;;48.50;30.08;;;20.80;99.90;;;;;;5066343;28;20185;-65
2021/07/26 09:25:45;;;;;;;41.55;28.15;;;21.00;99.90;;;;;;5066529;28;20168;-64
2021/07/26 09:28:15;;;;;;;47.80;27.92;;;20.90;99.90;;;;;;5066550;28;20161;-65
2021/07/26 09:30:53;;;;;;;37.63;24.80;;;20.60;99.90;;;;;;5062723;28;20586;-66
2021/07/26 09:33:32;;;;;;;44.08;24.92;;;20.40;99.90;;;;;;5064777;28;20255;-65
2021/07/26 09:36:21;;;;;;;43.33;24.60;;;20.00;99.90;;;;;;5066093;28;20689;-65
2021/07/26 09:38:49;;;;;;;42.67;27.08;;;19.90;99.90;;;;;;5066454;28;20653;-65
2021/07/26 09:41:37;;;;;;;41.80;27.42;;;19.70;99.90;;;;;;5063756;28;20230;-65
2021/07/26 09:44:05;;;;;;;41.28;26.42;;;19.80;99.90;;;;;;5066333;28;20165;-65
2021/07/26 09:46:31;;;;;;;46.90;27.67;;;19.70;99.90;;;;;;5065930;28;20171;-65
2021/07/26 09:49:18;;;;;;;43.15;24.67;;;19.70;99.90;;;;;;5065551;28;20224;-64
2021/07/26 09:52:07;;;;;;;45.72;25.52;;;19.60;99.90;;;;;;5063405;28;20259;-65
2021/07/26 09:54:59;;;;;;;40.95;25.80;;;19.60;99.90;;;;;;5065957;28;20183;-64
2021/07/26 09:57:26;;;;;;;35.65;22.45;;;19.60;99.90;;;;;;5063656;28;20227;-64
2021/07/26 09:59:53;;;;;;;43.58;23.50;;;19.40;99.90;;;;;;5066367;28;20224;-64
2021/07/26 10:02:20;;;;;;;36.15;22.65;;;19.50;99.90;;;;;;5063255;28;20189;-64
2021/07/26 10:04:47;;;;;;;39.50;21.45;;;19.50;99.90;;;;;;5065773;28;20165;-65
2021/07/26 10:07:14;;;;;;;37.35;21.63;;;19.80;99.90;;;;;;5066000;28;20203;-64
2021/07/26 10:09:41;;;;;;;35.83;21.02;;;19.90;99.90;;;;;;5065665;28;20220;-64
2021/07/26 10:12:10;;;;;;;31.63;20.50;;;19.90;99.90;;;;;;5063307;28;20164;-65
2021/07/26 10:14:38;;;;;;;33.92;21.25;;;20.20;99.90;;;;;;5065785;28;20156;-65
2021/07/26 10:17:04;;;;;;;27.38;18.98;;;20.50;99.90;;;;;;5064415;28;20216;-64
2021/07/26 10:19:29;;;;;;;38.35;20.77;;;20.80;99.90;;;;;;5065457;28;20161;-64
2021/07/26 10:21:59;;;;;;;32.72;19.23;;;21.00;99.90;;;;;;5061786;28;20600;-64
2021/07/26 10:24:41;;;;;;;30.05;17.83;;;21.10;99.90;;;;;;5065405;28;20157;-64
2021/07/26 10:27:16;;;;;;;26.63;16.83;;;21.10;99.90;;;;;;5065755;28;20164;-64
2021/07/26 10:29:52;;;;;;;23.85;16.05;;;21.00;99.90;;;;;;5065747;28;20178;-64
2021/07/26 10:32:30;;;;;;;20.08;15.13;;;21.00;99.90;;;;;;5062709;28;20171;-64
2021/07/26 10:35:12;;;;;;;30.73;15.25;;;21.20;99.90;;;;;;5065210;28;20230;-64
2021/07/26 10:37:41;;;;;;;25.10;15.73;;;21.50;99.90;;;;;;5065458;28;20192;-64
2021/07/26 10:40:29;;;;;;;21.58;14.65;;;21.70;99.90;;;;;;5065457;28;20244;-64
2021/07/26 10:43:01;;;;;;;20.73;14.27;;;21.80;99.90;;;;;;5064627;28;20157;-64
2021/07/26 10:45:35;;;;;;;19.92;13.90;;;21.90;99.90;;;;;;5065550;28;20653;-64
2021/07/26 10:48:19;;;;;;;17.60;11.77;;;21.80;99.90;;;;;;5065630;28;20171;-64
2021/07/26 10:50:49;;;;;;;19.42;12.88;;;22.10;99.90;;;;;;5062524;28;20601;-64
2021/07/26 10:53:32;;;;;;;25.17;12.38;;;22.20;99.90;;;;;;5065272;28;20160;-64
2021/07/26 10:56:09;;;;;;;23.10;12.23;;;22.10;99.90;;;;;;5063917;28;20196;-64
2021/07/26 10:58:38;;;;;;;16.83;12.68;;;21.70;99.90;;;;;;5066000;28;20175;-64
2021/07/26 11:01:30;;;;;;;24.40;12.27;;;21.80;99.90;;;;;;5066906;28;20184;-64
2021/07/26 11:03:57;;;;;;;17.15;12.15;;;22.10;99.90;;;;;;5069219;28;20661;-64
2021/07/26 11:06:37;;;;;;;20.55;10.85;;;22.60;99.90;;;;;;5068795;28;20215;-64
2021/07/26 11:09:21;;;;;;;16.73;11.43;;;22.70;99.90;;;;;;5069088;28;20247;-64
2021/07/26 11:11:48;;;;;;;20.33;10.75;;;22.70;99.90;;;;;;5065148;28;20198;-65
2021/07/26 11:14:15;;;;;;;18.38;9.82;;;22.70;99.90;;;;;;5067729;28;20539;-64
2021/07/26 11:16:53;;;;;;;13.55;9.60;;;22.70;99.90;;;;;;5069000;28;20188;-64
2021/07/26 11:19:40;;;;;;;12.38;9.77;;;22.90;99.90;;;;;;5068925;28;20618;-65
2021/07/26 11:22:26;;;;;;;20.65;10.02;;;22.70;99.90;;;;;;5064927;28;20203;-64
2021/07/26 11:24:54;;;;;;;14.75;10.02;;;23.00;99.90;;;;;;5068787;28;20199;-64
2021/07/26 11:27:22;;;;;;;11.48;8.02;;;23.30;99.90;;;;;;5068448;28;20164;-64
2021/07/26 11:29:51;;;;;;;11.52;7.55;;;23.10;99.90;;;;;;5068768;28;20173;-64
2021/07/26 11:32:26;;;;;;;11.80;7.47;;;22.80;99.90;;;;;;5066075;28;20244;-64
2021/07/26 11:34:57;;;;;;;10.65;8.15;;;22.90;99.90;;;;;;5068442;28;20164;-65
2021/07/26 11:37:30;;;;;;;13.00;7.82;;;22.80;99.90;;;;;;5067080;28;20196;-65
2021/07/26 11:40:00;;;;;;;11.48;7.78;;;22.90;99.90;;;;;;5068596;28;20172;-64
2021/07/26 11:42:31;;;;;;;12.05;8.15;;;22.70;99.90;;;;;;5065838;28;20167;-65
2021/07/26 11:45:01;;;;;;;12.40;7.75;;;22.80;99.90;;;;;;5068451;28;20169;-64
2021/07/26 11:47:48;;;;;;;13.95;8.32;;;22.80;99.90;;;;;;5068294;28;20256;-64
2021/07/26 11:50:20;;;;;;;12.77;8.98;;;22.80;99.90;;;;;;5068246;28;20541;-64
2021/07/26 11:52:53;;;;;;;17.00;9.70;;;22.60;99.90;;;;;;5066338;28;20201;-64
2021/07/26 11:55:19;;;;;;;20.25;10.95;;;22.20;99.90;;;;;;5068124;28;20211;-64
2021/07/26 11:57:57;;;;;;;15.75;10.40;;;21.80;99.90;;;;;;5068168;28;20173;-64
2021/07/26 12:00:28;;;;;;;14.27;9.70;;;21.50;99.90;;;;;;5067302;28;20183;-64
2021/07/26 12:02:54;;;;;;;14.82;10.55;;;21.30;99.90;;;;;;5067011;28;20184;-64
2021/07/26 12:05:30;;;;;;;17.10;10.35;;;21.00;99.90;;;;;;5067666;28;20173;-65
2021/07/26 12:07:57;;;;;;;16.05;10.48;;;20.60;99.90;;;;;;5067777;28;20179;-65
2021/07/26 12:10:34;;;;;;;11.48;10.13;;;20.40;99.90;;;;;;5065988;28;20157;-66
2021/07/26 12:13:11;;;;;;;16.88;11.77;;;19.90;99.90;;;;;;5067751;28;20185;-66
2021/07/26 12:15:39;;;;;;;18.08;13.38;;;19.70;99.90;;;;;;5067742;28;20164;-66
2021/07/26 12:18:10;;;;;;;16.48;13.95;;;19.40;99.90;;;;;;5066402;28;20237;-66
2021/07/26 12:20:43;;;;;;;19.95;14.80;;;19.30;99.90;;;;;;5065249;28;20180;-67
2021/07/26 12:23:19;;;;;;;18.75;14.50;;;19.40;99.90;;;;;;5067941;28;20161;-66
2021/07/26 12:25:51;;;;;;;22.17;14.77;;;19.40;99.90;;;;;;5067894;28;20170;-66
2021/07/26 12:28:38;;;;;;;18.83;13.85;;;19.30;99.90;;;;;;5067497;28;20223;-66
2021/07/26 12:31:27;;;;;;;16.25;12.20;;;19.30;99.90;;;;;;5065155;28;20156;-66
2021/07/26 12:34:12;;;;;;;16.50;13.20;;;19.30;99.90;;;;;;5067351;28;20192;-65
2021/07/26 12:36:38;;;;;;;14.27;12.32;;;19.50;99.90;;;;;;5067083;28;20219;-66
2021/07/26 12:39:07;;;;;;;11.88;10.65;;;19.60;99.90;;;;;;5067387;28;20157;-65
2021/07/26 12:41:36;;;;;;;16.67;10.73;;;19.70;99.90;;;;;;5063370;28;20534;-65